Time;durP1;ratioP1;P1;durP2;ratioP2;P2;SDS_P1;SDS_P2;PMS_P1;PMS_P2;Temp;Humidity;BMP_temperature;BMP_pressure;BME280_temperature;BME280_humidity;BME280_pressure;Samples;Min_cycle;Max_cycle;Signal;HPM_P1;HPM_P2
2021/08/15 00:01:49;;;;;;;15.83;10.03;;;19.50;99.90;;;;;;4439784;32;20183;-82
2021/08/15 00:04:16;;;;;;;15.47;9.50;;;19.40;99.90;;;;;;4440496;32;20123;-82
2021/08/15 00:06:43;;;;;;;15.07;10.40;;;19.30;99.90;;;;;;4440102;32;20146;-81
2021/08/15 00:09:10;;;;;;;16.63;10.27;;;19.30;99.90;;;;;;4439151;32;20158;-81
2021/08/15 00:11:37;;;;;;;14.53;10.07;;;19.30;99.90;;;;;;4439934;32;20184;-83
2021/08/15 00:14:04;;;;;;;15.97;9.67;;;19.30;99.90;;;;;;4440396;32;20126;-87
2021/08/15 00:16:32;;;;;;;16.10;9.70;;;19.20;99.90;;;;;;4440100;32;20131;-82
2021/08/15 00:19:05;;;;;;;16.83;9.60;;;19.20;99.90;;;;;;4440551;32;20210;-82
2021/08/15 00:21:33;;;;;;;16.50;9.70;;;19.20;99.90;;;;;;4440536;32;20520;-83
2021/08/15 00:24:00;;;;;;;14.20;9.50;;;19.10;99.90;;;;;;4440890;32;20480;-81
2021/08/15 00:26:28;;;;;;;16.40;9.10;;;19.10;99.90;;;;;;4439164;32;20481;-83
2021/08/15 00:28:56;;;;;;;15.60;9.33;;;19.10;99.90;;;;;;4439113;32;20154;-84
2021/08/15 00:31:26;;;;;;;14.73;8.80;;;19.00;99.90;;;;;;4440429;32;20179;-83
2021/08/15 00:33:54;;;;;;;13.17;8.87;;;19.00;99.90;;;;;;4439811;32;20492;-83
2021/08/15 00:36:21;;;;;;;15.90;8.73;;;18.90;99.90;;;;;;4440278;32;20176;-83
2021/08/15 00:38:48;;;;;;;14.50;9.20;;;19.00;99.90;;;;;;4437809;32;20134;-84
2021/08/15 00:41:15;;;;;;;15.20;9.27;;;18.80;99.90;;;;;;4440424;32;20127;-86
2021/08/15 00:43:41;;;;;;;14.43;8.80;;;18.90;99.90;;;;;;4439722;32;20131;-84
2021/08/15 00:46:10;;;;;;;14.60;8.73;;;18.90;99.90;;;;;;4438713;32;20195;-85
2021/08/15 00:48:37;;;;;;;15.00;8.53;;;18.80;99.90;;;;;;4439678;32;20130;-84
2021/08/15 00:51:04;;;;;;;20.13;9.40;;;18.80;99.90;;;;;;4439100;32;20521;-82
2021/08/15 00:53:33;;;;;;;14.10;9.13;;;18.80;99.90;;;;;;4438394;32;20123;-82
2021/08/15 00:56:03;;;;;;;13.40;8.77;;;18.80;99.90;;;;;;4439254;32;20472;-82
2021/08/15 00:58:38;;;;;;;13.97;9.30;;;18.80;99.90;;;;;;4439661;32;20472;-83
2021/08/15 01:01:09;;;;;;;15.40;8.93;;;18.70;99.90;;;;;;4439052;32;20468;-83
2021/08/15 01:03:40;;;;;;;11.57;8.13;;;18.70;99.90;;;;;;4438951;32;20138;-82
2021/08/15 01:06:07;;;;;;;15.37;8.93;;;18.70;99.90;;;;;;4440277;32;20138;-83
2021/08/15 01:08:35;;;;;;;14.33;8.97;;;18.70;99.90;;;;;;4438947;32;20122;-88
2021/08/15 01:11:04;;;;;;;13.17;8.80;;;18.70;99.90;;;;;;4438798;32;20448;-86
2021/08/15 01:13:32;;;;;;;12.77;8.50;;;18.60;99.90;;;;;;4440013;32;20158;-84
2021/08/15 01:16:03;;;;;;;15.50;9.23;;;18.60;99.90;;;;;;4439455;32;20138;-83
2021/08/15 01:18:34;;;;;;;14.40;8.90;;;18.60;99.90;;;;;;4439749;32;20406;-83
2021/08/15 01:21:09;;;;;;;14.17;8.50;;;18.50;99.90;;;;;;4439989;32;20162;-83
2021/08/15 01:23:39;;;;;;;13.60;9.30;;;18.60;99.90;;;;;;4439381;32;20154;-82
2021/08/15 01:26:12;;;;;;;12.13;8.50;;;18.50;99.90;;;;;;4439646;32;20480;-82
2021/08/15 01:28:39;;;;;;;15.67;8.53;;;18.50;99.90;;;;;;4437960;32;20211;-84
2021/08/15 01:31:10;;;;;;;14.90;9.10;;;18.50;99.90;;;;;;4438890;32;20146;-84
2021/08/15 01:33:42;;;;;;;16.37;8.30;;;18.60;99.90;;;;;;4438025;32;20127;-81
2021/08/15 01:36:12;;;;;;;16.70;8.63;;;18.50;99.90;;;;;;4438269;32;20544;-81
2021/08/15 01:38:40;;;;;;;12.83;8.27;;;18.50;99.90;;;;;;4439410;32;20529;-82
2021/08/15 01:41:08;;;;;;;13.10;8.07;;;18.60;99.90;;;;;;4438240;32;20122;-81
2021/08/15 01:43:57;;;;;;;13.27;8.57;;;18.60;99.90;;;;;;4438714;32;20472;-81
2021/08/15 01:46:30;;;;;;;12.87;8.47;;;18.50;99.90;;;;;;4438305;32;20135;-81
2021/08/15 01:48:58;;;;;;;11.67;7.87;;;18.50;99.90;;;;;;4439755;32;20152;-82
2021/08/15 01:51:26;;;;;;;13.60;8.40;;;18.50;99.90;;;;;;4442254;32;20176;-82
2021/08/15 01:53:55;;;;;;;14.47;8.00;;;18.40;99.90;;;;;;4440973;32;20193;-82
2021/08/15 01:56:23;;;;;;;12.80;8.23;;;18.40;99.90;;;;;;4441442;32;20299;-82
2021/08/15 01:58:50;;;;;;;12.10;8.07;;;18.40;99.90;;;;;;4441082;32;20204;-82
2021/08/15 02:01:18;;;;;;;14.23;8.07;;;18.40;99.90;;;;;;4442698;32;20184;-82
2021/08/15 02:03:47;;;;;;;11.33;7.73;;;18.40;99.90;;;;;;4442972;32;20123;-81
2021/08/15 02:06:15;;;;;;;11.67;8.30;;;18.40;99.90;;;;;;4443106;32;20131;-80
2021/08/15 02:08:41;;;;;;;13.67;7.93;;;18.40;99.90;;;;;;4442622;32;20184;-80
2021/08/15 02:11:08;;;;;;;14.10;8.43;;;18.40;99.90;;;;;;4441449;32;20147;-80
2021/08/15 02:13:35;;;;;;;13.70;8.00;;;18.40;99.90;;;;;;4443166;32;20182;-80
2021/08/15 02:16:02;;;;;;;12.20;7.83;;;18.40;99.90;;;;;;4440731;32;20253;-81
2021/08/15 02:18:29;;;;;;;12.90;7.90;;;18.30;99.90;;;;;;4440981;32;20143;-81
2021/08/15 02:20:56;;;;;;;12.13;7.70;;;18.30;99.90;;;;;;4440905;32;20481;-81
2021/08/15 02:23:23;;;;;;;12.93;7.97;;;18.30;99.90;;;;;;4442168;32;20119;-80
2021/08/15 02:25:49;;;;;;;11.63;7.60;;;18.30;99.90;;;;;;4441590;32;20429;-81
2021/08/15 02:28:16;;;;;;;11.67;7.50;;;18.20;99.90;;;;;;4441617;32;20146;-80
2021/08/15 02:30:43;;;;;;;12.83;8.03;;;18.20;99.90;;;;;;4440721;32;20446;-81
2021/08/15 02:33:10;;;;;;;11.60;7.47;;;18.20;99.90;;;;;;4440671;32;20127;-80
2021/08/15 02:35:37;;;;;;;12.10;7.60;;;18.20;99.90;;;;;;4442741;32;20143;-81
2021/08/15 02:38:04;;;;;;;12.57;7.57;;;18.20;99.90;;;;;;4441256;32;20176;-80
2021/08/15 02:40:30;;;;;;;11.63;7.50;;;18.30;99.90;;;;;;4442297;32;20130;-79
2021/08/15 02:42:57;;;;;;;12.50;7.37;;;18.30;99.90;;;;;;4442264;32;20172;-80
2021/08/15 02:45:25;;;;;;;12.13;7.90;;;18.30;99.90;;;;;;4441777;32;20147;-80
2021/08/15 02:47:53;;;;;;;10.50;7.20;;;18.30;99.90;;;;;;4443393;32;20189;-80
2021/08/15 02:50:21;;;;;;;11.30;7.80;;;18.30;99.90;;;;;;4443226;32;20139;-80
2021/08/15 02:52:49;;;;;;;11.60;7.37;;;18.30;99.90;;;;;;4443444;32;20405;-81
2021/08/15 02:55:16;;;;;;;17.43;7.70;;;18.30;99.90;;;;;;4441781;32;20159;-82
2021/08/15 02:57:42;;;;;;;12.17;7.47;;;18.20;99.90;;;;;;4440635;32;20198;-83
2021/08/15 03:00:11;;;;;;;13.03;7.90;;;18.20;99.90;;;;;;4441103;32;20127;-82
2021/08/15 03:02:38;;;;;;;12.93;8.10;;;18.20;99.90;;;;;;4440430;32;20480;-82
2021/08/15 03:05:06;;;;;;;13.13;7.90;;;18.20;99.90;;;;;;4439944;32;20127;-83
2021/08/15 03:07:33;;;;;;;14.00;8.40;;;18.20;99.90;;;;;;4440603;32;20207;-84
2021/08/15 03:10:00;;;;;;;13.17;8.67;;;18.20;99.90;;;;;;4440958;32;20126;-84
2021/08/15 03:12:27;;;;;;;13.43;9.03;;;18.20;99.90;;;;;;4442115;32;20135;-83
2021/08/15 03:14:54;;;;;;;13.13;8.50;;;18.30;99.90;;;;;;4441538;32;20601;-84
2021/08/15 03:17:21;;;;;;;15.47;9.50;;;18.20;99.90;;;;;;4441445;32;20134;-84
2021/08/15 03:19:47;;;;;;;14.70;9.50;;;18.30;99.90;;;;;;4441284;32;20180;-83
2021/08/15 03:22:14;;;;;;;13.30;9.20;;;18.30;99.90;;;;;;4440043;32;20517;-83
2021/08/15 03:24:41;;;;;;;16.03;10.10;;;18.20;99.90;;;;;;4440273;32;20123;-83
2021/08/15 03:27:08;;;;;;;13.30;9.23;;;18.20;99.90;;;;;;4440829;32;20424;-83
2021/08/15 03:29:35;;;;;;;14.20;9.77;;;18.20;99.90;;;;;;4439773;32;20166;-84
2021/08/15 03:32:02;;;;;;;14.17;9.60;;;18.20;99.90;;;;;;4441312;32;20425;-83
2021/08/15 03:34:29;;;;;;;14.90;9.80;;;18.20;99.90;;;;;;4441633;32;20481;-84
2021/08/15 03:36:58;;;;;;;16.70;10.17;;;18.20;99.90;;;;;;4439307;32;20472;-82
2021/08/15 03:39:29;;;;;;;16.27;10.43;;;18.30;99.90;;;;;;4439949;32;20572;-82
2021/08/15 03:41:58;;;;;;;13.07;10.03;;;18.20;99.90;;;;;;4440592;32;20169;-82
2021/08/15 03:44:29;;;;;;;16.47;10.00;;;18.30;99.90;;;;;;4439972;32;20123;-81
2021/08/15 03:46:57;;;;;;;16.53;10.50;;;18.30;99.90;;;;;;4439682;32;20460;-82
2021/08/15 03:49:24;;;;;;;15.53;9.90;;;18.20;99.90;;;;;;4440295;32;20123;-82
2021/08/15 03:51:51;;;;;;;17.03;10.87;;;18.30;99.90;;;;;;4440320;32;20479;-82
2021/08/15 03:54:20;;;;;;;19.80;10.37;;;18.30;99.90;;;;;;4439741;32;20157;-81
2021/08/15 03:56:49;;;;;;;14.47;10.17;;;18.30;99.90;;;;;;4439781;32;20193;-82
2021/08/15 03:59:17;;;;;;;15.37;10.47;;;18.30;99.90;;;;;;4440270;32;20150;-81
2021/08/15 04:01:44;;;;;;;14.30;10.57;;;18.40;99.90;;;;;;4438955;32;20488;-82
2021/08/15 04:04:11;;;;;;;15.77;10.47;;;18.40;99.90;;;;;;4439994;32;20150;-81
2021/08/15 04:06:38;;;;;;;16.27;10.30;;;18.50;99.90;;;;;;4440227;32;20145;-81
2021/08/15 04:09:05;;;;;;;16.47;10.37;;;18.50;99.90;;;;;;4439375;32;20152;-81
2021/08/15 04:11:32;;;;;;;13.47;9.67;;;18.50;99.90;;;;;;4439766;32;20181;-81
2021/08/15 04:13:59;;;;;;;15.87;10.40;;;18.60;99.90;;;;;;4439513;32;20167;-81
2021/08/15 04:16:26;;;;;;;16.07;10.47;;;18.60;99.90;;;;;;4440202;32;20130;-82
2021/08/15 04:18:54;;;;;;;16.10;10.37;;;18.70;99.90;;;;;;4439679;32;20199;-82
2021/08/15 04:21:21;;;;;;;16.53;10.50;;;18.60;99.90;;;;;;4439643;32;20135;-81
2021/08/15 04:23:48;;;;;;;18.50;10.70;;;18.70;99.90;;;;;;4439987;32;20389;-85
2021/08/15 04:26:15;;;;;;;16.07;10.77;;;18.80;99.90;;;;;;4439510;32;20150;-84
2021/08/15 04:28:41;;;;;;;15.50;10.73;;;18.80;99.90;;;;;;4439948;32;20189;-84
2021/08/15 04:31:08;;;;;;;19.27;11.23;;;18.90;99.90;;;;;;4440794;32;20199;-84
2021/08/15 04:33:35;;;;;;;16.47;10.97;;;18.90;99.90;;;;;;4439080;32;20165;-84
2021/08/15 04:36:02;;;;;;;15.60;10.20;;;19.00;99.90;;;;;;4440614;32;20142;-85
2021/08/15 04:38:29;;;;;;;16.53;10.73;;;19.00;99.90;;;;;;4439276;32;20211;-84
2021/08/15 04:40:55;;;;;;;15.17;10.77;;;19.10;99.90;;;;;;4440797;32;20202;-84
2021/08/15 04:43:22;;;;;;;17.93;11.17;;;19.10;99.90;;;;;;4440882;32;20122;-84
2021/08/15 04:45:49;;;;;;;15.63;11.07;;;19.20;99.90;;;;;;4440752;32;20466;-85
2021/08/15 04:48:16;;;;;;;16.30;11.63;;;19.20;99.90;;;;;;4440556;32;20172;-85
2021/08/15 04:50:43;;;;;;;18.63;11.53;;;19.30;99.90;;;;;;4439224;32;20179;-84
2021/08/15 04:53:11;;;;;;;16.63;11.70;;;19.30;99.90;;;;;;4439125;32;20127;-84
2021/08/15 04:55:38;;;;;;;16.70;12.20;;;19.40;99.90;;;;;;4440828;32;20126;-84
2021/08/15 04:58:05;;;;;;;18.60;12.20;;;19.40;99.90;;;;;;4440306;32;20234;-84
2021/08/15 05:00:33;;;;;;;17.17;11.77;;;19.50;99.90;;;;;;4440839;32;20131;-84
2021/08/15 05:03:00;;;;;;;18.70;11.57;;;19.60;99.90;;;;;;4438886;32;20161;-84
2021/08/15 05:05:27;;;;;;;19.90;12.00;;;19.70;99.90;;;;;;4440538;32;20457;-83
2021/08/15 05:07:54;;;;;;;18.30;12.43;;;19.90;99.90;;;;;;4438167;32;20130;-85
2021/08/15 05:10:23;;;;;;;16.97;12.10;;;20.00;99.90;;;;;;4438804;32;20127;-81
2021/08/15 05:12:49;;;;;;;16.40;11.83;;;20.10;99.90;;;;;;4439598;32;20187;-80
2021/08/15 05:15:16;;;;;;;18.43;11.60;;;20.20;99.90;;;;;;4439879;32;20197;-82
2021/08/15 05:17:43;;;;;;;20.20;12.63;;;20.30;99.90;;;;;;4439483;32;20189;-82
2021/08/15 05:20:11;;;;;;;18.30;11.77;;;20.40;99.90;;;;;;4440245;32;20188;-80
2021/08/15 05:22:38;;;;;;;17.43;11.80;;;20.40;99.90;;;;;;4438563;32;20448;-84
2021/08/15 05:25:05;;;;;;;18.77;12.50;;;20.50;99.90;;;;;;4441257;32;20138;-81
2021/08/15 05:27:32;;;;;;;18.20;11.73;;;20.60;99.90;;;;;;4441567;32;20557;-80
2021/08/15 05:29:59;;;;;;;17.77;11.60;;;20.70;99.90;;;;;;4442057;32;20139;-84
2021/08/15 05:32:26;;;;;;;17.23;11.83;;;20.80;99.90;;;;;;4443337;32;20127;-82
2021/08/15 05:34:53;;;;;;;18.23;11.93;;;20.80;99.90;;;;;;4441518;32;20158;-79
2021/08/15 05:37:19;;;;;;;18.43;11.93;;;20.90;99.90;;;;;;4441375;32;20145;-81
2021/08/15 05:39:46;;;;;;;20.33;11.80;;;21.10;99.90;;;;;;4441346;32;20545;-75
2021/08/15 05:42:14;;;;;;;19.63;11.93;;;21.20;99.90;;;;;;4442552;32;20119;-84
2021/08/15 05:44:41;;;;;;;18.73;12.40;;;21.20;99.90;;;;;;4441758;32;20135;-84
2021/08/15 05:47:08;;;;;;;20.33;12.40;;;21.30;99.90;;;;;;4441474;32;20142;-82
2021/08/15 05:49:35;;;;;;;18.33;11.87;;;21.40;99.90;;;;;;4441698;32;20551;-81
2021/08/15 05:52:02;;;;;;;18.53;12.27;;;21.40;99.90;;;;;;4441940;32;20184;-85
2021/08/15 05:54:29;;;;;;;17.57;11.70;;;21.60;99.90;;;;;;4443157;32;20350;-86
2021/08/15 05:56:56;;;;;;;17.87;11.37;;;21.70;99.90;;;;;;4442646;32;20165;-83
2021/08/15 05:59:22;;;;;;;17.97;11.60;;;21.80;99.90;;;;;;4442294;32;20202;-83
2021/08/15 06:01:50;;;;;;;19.27;11.15;;;22.00;99.90;;;;;;4442073;32;20210;-82
2021/08/15 06:04:18;;;;;;;17.10;11.83;;;22.00;99.90;;;;;;4440830;32;20200;-84
2021/08/15 06:06:44;;;;;;;16.33;11.43;;;22.00;99.90;;;;;;4440889;32;20211;-82
2021/08/15 06:09:12;;;;;;;16.37;11.67;;;22.10;99.90;;;;;;4441448;32;20196;-83
2021/08/15 06:11:38;;;;;;;17.80;11.43;;;22.00;99.90;;;;;;4440987;32;20387;-85
2021/08/15 06:14:05;;;;;;;16.47;11.63;;;22.00;99.90;;;;;;4441385;32;20130;-89
2021/08/15 06:16:32;;;;;;;17.10;12.17;;;22.00;99.90;;;;;;4442833;32;20150;-89
2021/08/15 06:18:59;;;;;;;16.93;11.70;;;22.10;99.90;;;;;;4441190;32;20180;-88
2021/08/15 06:21:26;;;;;;;19.73;12.10;;;22.20;99.90;;;;;;4442921;32;20154;-86
2021/08/15 06:23:52;;;;;;;19.03;11.77;;;22.20;99.90;;;;;;4442162;32;20134;-86
2021/08/15 06:26:19;;;;;;;19.80;11.90;;;22.20;99.90;;;;;;4441624;32;20126;-87
2021/08/15 06:28:46;;;;;;;19.07;12.33;;;22.30;99.90;;;;;;4441105;32;20154;-78
2021/08/15 06:31:20;;;;;;;16.63;12.90;;;22.40;99.90;;;;;;4442309;32;20143;-77
2021/08/15 06:33:47;;;;;;;18.07;12.63;;;22.50;99.90;;;;;;4441439;32;20158;-78
2021/08/15 06:36:14;;;;;;;16.45;12.07;;;22.60;99.90;;;;;;4440277;32;20207;-78
2021/08/15 06:38:41;;;;;;;17.90;12.47;;;22.80;99.90;;;;;;4440561;32;20131;-77
2021/08/15 06:41:09;;;;;;;20.30;12.43;;;23.00;99.90;;;;;;4441534;32;20182;-78
2021/08/15 06:43:36;;;;;;;18.83;12.10;;;23.00;99.90;;;;;;4440180;32;20135;-77
2021/08/15 06:46:03;;;;;;;21.07;13.00;;;23.00;99.90;;;;;;4441457;32;20544;-77
2021/08/15 06:48:30;;;;;;;18.37;12.43;;;23.00;99.90;;;;;;4440318;32;20378;-78
2021/08/15 06:50:58;;;;;;;16.45;12.40;;;23.10;99.90;;;;;;4442127;32;20401;-77
2021/08/15 06:53:27;;;;;;;18.60;12.05;;;23.20;99.90;;;;;;4442018;32;20223;-77
2021/08/15 06:55:54;;;;;;;18.83;12.35;;;23.20;99.90;;;;;;4441243;32;20237;-78
2021/08/15 06:58:21;;;;;;;18.33;12.68;;;23.40;99.90;;;;;;4442144;32;20162;-77
2021/08/15 07:00:47;;;;;;;18.90;12.13;;;23.50;99.90;;;;;;4440534;32;20427;-77
2021/08/15 07:03:14;;;;;;;18.03;12.50;;;23.50;99.90;;;;;;4441824;32;20131;-78
2021/08/15 07:05:41;;;;;;;19.42;12.77;;;23.70;99.90;;;;;;4440796;32;20138;-78
2021/08/15 07:08:08;;;;;;;17.48;11.82;;;23.80;99.90;;;;;;4441766;32;20172;-78
2021/08/15 07:10:35;;;;;;;16.80;12.23;;;24.00;99.90;;;;;;4439834;32;20180;-78
2021/08/15 07:13:06;;;;;;;17.23;11.95;;;24.00;99.90;;;;;;4440239;32;20155;-78
2021/08/15 07:15:33;;;;;;;18.87;11.93;;;24.20;99.90;;;;;;4441020;32;20410;-77
2021/08/15 07:18:01;;;;;;;15.45;11.07;;;24.20;99.90;;;;;;4441760;32;20198;-78
2021/08/15 07:20:28;;;;;;;17.45;11.85;;;24.30;99.90;;;;;;4441892;32;20186;-77
2021/08/15 07:22:56;;;;;;;21.67;12.13;;;24.30;99.90;;;;;;4442023;32;20166;-68
2021/08/15 07:25:25;;;;;;;18.00;11.90;;;24.50;99.90;;;;;;4441751;32;20135;-75
2021/08/15 07:27:51;;;;;;;16.00;11.23;;;24.60;99.90;;;;;;4440022;32;20249;-73
2021/08/15 07:30:18;;;;;;;14.45;10.70;;;24.80;99.90;;;;;;4439924;32;20146;-71
2021/08/15 07:32:53;;;;;;;16.83;10.38;;;24.80;99.90;;;;;;4440558;32;20182;-73
2021/08/15 07:35:22;;;;;;;17.35;10.32;;;24.90;99.90;;;;;;4440202;32;20176;-73
2021/08/15 07:37:49;;;;;;;15.02;10.65;;;24.90;99.90;;;;;;4441750;32;20127;-73
2021/08/15 07:40:16;;;;;;;14.23;10.38;;;24.90;99.90;;;;;;4440044;32;20184;-73
2021/08/15 07:42:45;;;;;;;13.90;10.40;;;24.90;99.90;;;;;;4441555;32;20126;-75
2021/08/15 07:45:12;;;;;;;19.55;10.13;;;25.00;99.90;;;;;;4439485;32;20142;-74
2021/08/15 07:47:39;;;;;;;13.60;10.30;;;25.00;99.90;;;;;;4440150;32;20367;-73
2021/08/15 07:50:07;;;;;;;14.00;9.82;;;25.00;99.90;;;;;;4441260;32;20139;-73
2021/08/15 07:52:34;;;;;;;12.63;9.30;;;25.10;99.90;;;;;;4439603;32;20126;-74
2021/08/15 07:55:01;;;;;;;11.60;9.10;;;25.10;99.90;;;;;;4441447;32;20190;-73
2021/08/15 07:57:28;;;;;;;11.12;8.90;;;25.20;99.90;;;;;;4439280;32;20457;-74
2021/08/15 07:59:55;;;;;;;13.65;9.00;;;25.20;99.90;;;;;;4440317;32;20153;-74
2021/08/15 08:02:21;;;;;;;11.35;8.95;;;25.30;99.90;;;;;;4440987;32;20228;-74
2021/08/15 08:04:50;;;;;;;11.82;8.70;;;25.40;99.90;;;;;;4440278;32;20122;-74
2021/08/15 08:07:19;;;;;;;10.98;8.05;;;25.40;99.90;;;;;;4439810;32;20425;-73
2021/08/15 08:09:47;;;;;;;10.52;7.30;;;25.40;99.90;;;;;;4439884;32;20512;-74
2021/08/15 08:12:14;;;;;;;10.82;7.45;;;25.50;99.90;;;;;;4440600;32;20127;-74
2021/08/15 08:14:41;;;;;;;10.07;7.10;;;26.00;99.90;;;;;;4440163;32;20138;-74
2021/08/15 08:17:09;;;;;;;11.52;6.68;;;26.70;99.90;;;;;;4439068;32;20184;-74
2021/08/15 08:19:36;;;;;;;9.63;7.20;;;27.40;99.90;;;;;;4440709;32;20178;-75
2021/08/15 08:22:03;;;;;;;10.07;7.10;;;28.00;99.90;;;;;;4440021;32;20131;-75
2021/08/15 08:24:29;;;;;;;8.23;6.35;;;28.50;99.90;;;;;;4439010;32;20172;-75
2021/08/15 08:26:56;;;;;;;9.82;6.60;;;29.00;99.90;;;;;;4440458;32;20198;-76
2021/08/15 08:29:23;;;;;;;8.40;6.07;;;29.40;99.90;;;;;;4438980;32;20211;-75
2021/08/15 08:31:50;;;;;;;8.85;6.15;;;30.10;99.90;;;;;;4440093;32;20453;-74
2021/08/15 08:34:17;;;;;;;8.88;6.20;;;30.50;98.30;;;;;;4438928;32;20190;-76
2021/08/15 08:36:43;;;;;;;8.80;6.78;;;30.80;96.90;;;;;;4440729;32;20123;-76
2021/08/15 08:39:10;;;;;;;9.55;6.03;;;31.00;93.90;;;;;;4438734;32;20127;-75
2021/08/15 08:41:39;;;;;;;8.20;6.00;;;31.30;93.80;;;;;;4440090;32;20126;-75
2021/08/15 08:44:09;;;;;;;8.85;6.30;;;31.20;90.50;;;;;;4438633;32;20626;-76
2021/08/15 08:46:36;;;;;;;9.07;6.37;;;31.40;91.20;;;;;;4437832;32;20522;-75
2021/08/15 08:49:03;;;;;;;9.38;6.35;;;31.30;91.00;;;;;;4440507;32;20190;-75
2021/08/15 08:51:31;;;;;;;8.32;6.22;;;31.10;90.60;;;;;;4439552;32;20134;-74
2021/08/15 08:54:17;;;;;;;12.98;6.85;;;31.40;90.60;;;;;;4438659;32;20446;-75
2021/08/15 08:56:44;;;;;;;7.75;6.18;;;31.70;87.90;;;;;;4438538;32;20152;-74
2021/08/15 08:59:11;;;;;;;7.95;6.20;;;31.60;86.20;;;;;;4439797;32;20146;-74
2021/08/15 09:01:41;;;;;;;10.48;6.55;;;31.50;87.20;;;;;;4440023;32;20207;-75
2021/08/15 09:04:10;;;;;;;9.40;6.07;;;31.60;86.50;;;;;;4438789;32;20153;-73
2021/08/15 09:06:39;;;;;;;8.93;6.40;;;31.90;83.90;;;;;;4440069;32;20473;-74
2021/08/15 09:09:15;;;;;;;10.15;6.25;;;31.80;84.40;;;;;;4440028;32;20266;-75
2021/08/15 09:11:48;;;;;;;9.05;6.10;;;32.30;82.10;;;;;;4439863;32;20394;-73
2021/08/15 09:14:18;;;;;;;9.18;6.28;;;32.00;78.80;;;;;;4437845;32;20131;-73
2021/08/15 09:16:49;;;;;;;7.57;5.82;;;32.00;81.80;;;;;;4438552;32;20416;-74
2021/08/15 09:19:26;;;;;;;8.57;5.82;;;32.50;80.30;;;;;;4440209;32;20364;-73
2021/08/15 09:21:55;;;;;;;9.45;6.22;;;32.90;80.20;;;;;;4438167;32;20437;-73
2021/08/15 09:24:22;;;;;;;7.57;5.87;;;33.00;74.50;;;;;;4439998;32;20239;-73
2021/08/15 09:27:08;;;;;;;7.93;5.72;;;33.10;75.80;;;;;;4439990;32;20134;-73
2021/08/15 09:29:35;;;;;;;8.15;5.40;;;32.80;72.40;;;;;;4438845;32;20161;-73
2021/08/15 09:32:02;;;;;;;8.18;5.40;;;31.60;74.10;;;;;;4439457;32;20135;-73
2021/08/15 09:34:29;;;;;;;6.95;5.43;;;31.60;75.40;;;;;;4439666;32;20138;-73
2021/08/15 09:36:56;;;;;;;6.78;5.37;;;31.50;72.90;;;;;;4439665;32;20184;-73
2021/08/15 09:39:34;;;;;;;8.15;5.82;;;31.80;73.70;;;;;;4438049;32;20179;-72
2021/08/15 09:42:01;;;;;;;7.47;5.50;;;32.00;71.80;;;;;;4437942;32;20138;-73
2021/08/15 09:44:31;;;;;;;6.82;5.28;;;32.30;72.70;;;;;;4439798;32;20195;-73
2021/08/15 09:47:12;;;;;;;7.35;4.87;;;32.50;69.80;;;;;;4437804;32;20127;-73
2021/08/15 09:49:44;;;;;;;7.85;5.68;;;32.90;69.20;;;;;;4439735;32;20177;-73
2021/08/15 09:52:16;;;;;;;6.43;5.50;;;32.50;70.00;;;;;;4437866;32;20125;-73
2021/08/15 09:54:55;;;;;;;7.40;5.70;;;32.00;70.30;;;;;;4437744;32;20519;-73
2021/08/15 09:57:30;;;;;;;7.78;5.90;;;31.80;72.60;;;;;;4437258;32;20145;-73
2021/08/15 09:59:57;;;;;;;6.78;5.72;;;31.40;73.30;;;;;;4439456;32;20210;-73
2021/08/15 10:02:25;;;;;;;7.78;5.70;;;30.90;73.50;;;;;;4438621;32;20416;-73
2021/08/15 10:04:55;;;;;;;9.55;6.03;;;31.00;75.00;;;;;;4439496;32;20512;-73
2021/08/15 10:07:24;;;;;;;7.47;5.78;;;31.20;74.00;;;;;;4439134;32;20191;-73
2021/08/15 10:09:51;;;;;;;7.00;5.40;;;31.00;74.20;;;;;;4440119;32;20206;-73
2021/08/15 10:12:18;;;;;;;9.73;5.32;;;30.70;74.50;;;;;;4441663;32;20143;-73
2021/08/15 10:14:45;;;;;;;7.93;5.65;;;30.60;76.70;;;;;;4442270;32;20123;-73
2021/08/15 10:17:15;;;;;;;7.62;5.80;;;30.70;78.40;;;;;;4442302;32;20499;-74
2021/08/15 10:19:52;;;;;;;13.07;6.43;;;30.90;79.30;;;;;;4442220;32;20157;-73
2021/08/15 10:22:27;;;;;;;9.43;5.45;;;31.10;79.20;;;;;;4441079;32;20394;-73
2021/08/15 10:24:56;;;;;;;6.70;5.28;;;31.60;74.50;;;;;;4440948;32;20196;-73
2021/08/15 10:27:41;;;;;;;6.85;5.10;;;32.00;74.20;;;;;;4440249;32;20166;-73
2021/08/15 10:30:20;;;;;;;7.03;5.22;;;32.60;71.30;;;;;;4439890;32;20146;-73
2021/08/15 10:32:56;;;;;;;7.82;4.40;;;32.90;70.00;;;;;;4441316;32;20521;-73
2021/08/15 10:35:34;;;;;;;8.10;5.07;;;32.80;70.10;;;;;;4440353;32;20188;-72
2021/08/15 10:38:09;;;;;;;8.77;5.53;;;32.70;68.60;;;;;;4442161;32;20187;-74
2021/08/15 10:40:39;;;;;;;10.43;5.43;;;32.30;71.10;;;;;;4439402;32;20157;-72
2021/08/15 10:43:07;;;;;;;6.80;5.20;;;32.20;71.80;;;;;;4442184;32;20465;-73
2021/08/15 10:45:34;;;;;;;7.62;5.40;;;32.30;71.50;;;;;;4442122;32;20525;-74
2021/08/15 10:48:12;;;;;;;6.32;4.95;;;32.50;68.70;;;;;;4439984;32;20246;-73
2021/08/15 10:50:51;;;;;;;6.32;4.97;;;32.90;70.50;;;;;;4440986;32;20152;-73
2021/08/15 10:53:27;;;;;;;9.15;5.22;;;33.10;69.40;;;;;;4441457;32;20217;-72
2021/08/15 10:55:57;;;;;;;5.93;4.70;;;33.20;65.90;;;;;;4441217;32;20175;-75
2021/08/15 10:58:35;;;;;;;6.93;4.87;;;33.30;65.50;;;;;;4440414;32;20306;-74
2021/08/15 11:01:03;;;;;;;6.60;5.20;;;33.70;65.40;;;;;;4439964;32;20456;-74
2021/08/15 11:03:32;;;;;;;6.72;4.80;;;33.90;64.00;;;;;;4441171;32;20135;-73
2021/08/15 11:06:00;;;;;;;8.07;4.85;;;34.00;62.30;;;;;;4440881;32;20127;-74
2021/08/15 11:08:33;;;;;;;6.90;4.80;;;33.20;65.50;;;;;;4440477;32;20408;-73
2021/08/15 11:11:12;;;;;;;8.98;5.20;;;33.50;63.50;;;;;;4439890;32;20149;-73
2021/08/15 11:13:39;;;;;;;6.37;4.70;;;33.10;63.40;;;;;;4439747;32;20179;-73
2021/08/15 11:16:24;;;;;;;6.60;5.05;;;33.70;65.90;;;;;;4439515;32;20138;-73
2021/08/15 11:19:10;;;;;;;7.15;4.72;;;34.40;65.30;;;;;;4441059;32;20226;-73
2021/08/15 11:21:59;;;;;;;6.80;4.80;;;35.10;59.60;;;;;;4439444;32;20177;-73
2021/08/15 11:24:27;;;;;;;6.32;4.47;;;35.50;57.90;;;;;;4439798;32;20152;-73
2021/08/15 11:26:55;;;;;;;7.60;4.65;;;36.20;59.30;;;;;;4440365;32;20398;-74
2021/08/15 11:29:23;;;;;;;6.05;4.43;;;35.90;56.10;;;;;;4439254;32;20162;-73
2021/08/15 11:31:52;;;;;;;6.10;4.60;;;35.80;57.20;;;;;;4441304;32;20139;-74
2021/08/15 11:34:19;;;;;;;5.68;4.40;;;36.40;56.10;;;;;;4441357;32;20134;-73
2021/08/15 11:36:57;;;;;;;6.78;4.90;;;36.70;54.50;;;;;;4440746;32;20188;-74
2021/08/15 11:39:29;;;;;;;6.68;4.60;;;35.90;55.10;;;;;;4441060;32;20479;-74
2021/08/15 11:41:56;;;;;;;7.70;4.85;;;36.30;55.60;;;;;;4438993;32;20184;-74
2021/08/15 11:44:22;;;;;;;7.60;4.57;;;36.70;54.40;;;;;;4439452;32;20134;-74
2021/08/15 11:46:49;;;;;;;5.85;4.75;;;37.10;53.30;;;;;;4440655;32;20188;-75
2021/08/15 11:49:35;;;;;;;5.97;4.57;;;37.30;53.60;;;;;;4440981;32;20230;-74
2021/08/15 11:52:19;;;;;;;5.50;4.72;;;37.70;53.20;;;;;;4440536;32;20130;-73
2021/08/15 11:54:46;;;;;;;6.53;4.57;;;37.00;51.60;;;;;;4440934;32;20130;-74
2021/08/15 11:57:14;;;;;;;7.25;4.50;;;36.90;51.90;;;;;;4440593;32;20123;-74
2021/08/15 11:59:43;;;;;;;5.50;4.30;;;36.80;52.20;;;;;;4440841;32;20122;-74
2021/08/15 12:02:16;;;;;;;6.15;4.70;;;36.80;52.30;;;;;;4440080;32;20480;-73
2021/08/15 12:04:45;;;;;;;5.90;4.45;;;35.30;52.00;;;;;;4440650;32;20169;-73
2021/08/15 12:07:12;;;;;;;6.00;4.32;;;34.60;54.00;;;;;;4439357;32;20264;-72
2021/08/15 12:09:39;;;;;;;5.78;4.50;;;34.40;55.90;;;;;;4440433;32;20147;-75
2021/08/15 12:12:11;;;;;;;5.57;4.00;;;34.40;56.30;;;;;;4439997;32;20387;-75
2021/08/15 12:14:42;;;;;;;5.47;4.22;;;34.50;56.90;;;;;;4439610;32;20131;-75
2021/08/15 12:17:09;;;;;;;4.78;3.78;;;34.70;55.10;;;;;;4439682;32;20131;-75
2021/08/15 12:19:39;;;;;;;5.03;4.05;;;34.60;54.80;;;;;;4438157;32;20151;-75
2021/08/15 12:22:18;;;;;;;6.90;3.75;;;34.70;55.10;;;;;;4438338;32;20155;-76
2021/08/15 12:24:46;;;;;;;5.37;4.05;;;34.60;55.00;;;;;;4440219;32;20138;-75
2021/08/15 12:27:13;;;;;;;4.78;3.80;;;35.10;55.50;;;;;;4439529;32;20468;-76
2021/08/15 12:29:45;;;;;;;6.57;4.28;;;35.70;54.30;;;;;;4438335;32;20147;-75
2021/08/15 12:32:12;;;;;;;6.05;4.12;;;36.40;53.50;;;;;;4439724;32;20156;-76
2021/08/15 12:34:57;;;;;;;10.10;4.00;;;36.10;52.80;;;;;;4438335;32;20197;-76
2021/08/15 12:37:42;;;;;;;6.10;3.95;;;36.40;52.40;;;;;;4440121;32;20135;-75
2021/08/15 12:40:15;;;;;;;7.05;3.55;;;36.90;53.20;;;;;;4439226;32;20127;-77
2021/08/15 12:43:05;;;;;;;6.75;4.40;;;37.20;52.80;;;;;;4438232;32;20170;-77
2021/08/15 12:45:35;;;;;;;5.50;3.80;;;36.60;52.50;;;;;;4438648;32;20148;-76